UPSVAC Airport Information Service

Rafael Hernández Airport

ICAO: TJBQ Country: Aguadilla, Puerto Rico
Latitude: 18.495 Longitude: -67.1294
Latest Arrival : AMF3341 (KFLL-TJBQ) Latest Departure : AMF3342 (TJBQ-TNCA)


WX CaptureLIVE
Data provided by noaa.gov | Fetched at 11:11:58

METAR : TJBQ 271050Z 11006KT 10SM CLR 21/18 A3008

TAF : TJBQ 270539Z 2706/2806 10005KT P6SM SKC FM270900 11004KT P6SM FEW028 SCT070 FM271400 07015KT P6SM SCT035 NOT SKED TIL 271100


Runway Data for TJBQ
Data provided by openaviationdata.com

Runway ID Mag Var Hdg Length Elevation Surface ILS Freq ILS Id ILS Slope
8 -11 84° 11701 ft 237 ft Asphalt -- -- --
26 -11 264° 11701 ft 237 ft Asphalt -- -- --

Rafael Hernández Airport, Aguadilla, Puerto Rico
Use only for reference purposes



Not for navigational purposes.